sensor_id;sensor_type;location;lat;lon;timestamp;P1;durP1;ratioP1;P2;durP2;ratioP2
43678;SDS011;29279;50.858;4.392;2022-09-28T00:02:02;6.22;;;2.67;;
43678;SDS011;29279;50.858;4.392;2022-09-28T00:04:31;8.55;;;2.42;;
43678;SDS011;29279;50.858;4.392;2022-09-28T00:06:57;3.47;;;2.20;;
43678;SDS011;29279;50.858;4.392;2022-09-28T00:09:23;6.75;;;2.20;;
43678;SDS011;29279;50.858;4.392;2022-09-28T00:11:50;5.18;;;2.40;;
43678;SDS011;29279;50.858;4.392;2022-09-28T00:14:17;4.38;;;2.15;;
43678;SDS011;29279;50.858;4.392;2022-09-28T00:16:44;5.95;;;2.55;;
43678;SDS011;29279;50.858;4.392;2022-09-28T00:19:10;6.53;;;2.20;;
43678;SDS011;29279;50.858;4.392;2022-09-28T00:21:37;5.20;;;2.13;;
43678;SDS011;29279;50.858;4.392;2022-09-28T00:24:05;3.83;;;2.47;;
43678;SDS011;29279;50.858;4.392;2022-09-28T00:26:54;11.55;;;2.90;;
43678;SDS011;29279;50.858;4.392;2022-09-28T00:31:56;8.55;;;3.00;;
43678;SDS011;29279;50.858;4.392;2022-09-28T00:34:27;6.38;;;3.08;;
43678;SDS011;29279;50.858;4.392;2022-09-28T00:36:57;7.00;;;3.33;;
43678;SDS011;29279;50.858;4.392;2022-09-28T00:39:23;8.73;;;3.90;;
43678;SDS011;29279;50.858;4.392;2022-09-28T00:41:51;11.15;;;3.83;;
43678;SDS011;29279;50.858;4.392;2022-09-28T00:46:50;8.27;;;3.65;;
43678;SDS011;29279;50.858;4.392;2022-09-28T00:49:26;7.10;;;3.72;;
43678;SDS011;29279;50.858;4.392;2022-09-28T00:51:59;5.70;;;3.35;;
43678;SDS011;29279;50.858;4.392;2022-09-28T00:54:28;9.02;;;3.47;;
43678;SDS011;29279;50.858;4.392;2022-09-28T00:56:53;7.97;;;3.40;;
43678;SDS011;29279;50.858;4.392;2022-09-28T00:59:20;7.38;;;3.40;;
43678;SDS011;29279;50.858;4.392;2022-09-28T01:01:48;8.60;;;3.20;;
43678;SDS011;29279;50.858;4.392;2022-09-28T01:04:15;10.32;;;4.18;;
43678;SDS011;29279;50.858;4.392;2022-09-28T01:06:41;13.13;;;3.92;;
43678;SDS011;29279;50.858;4.392;2022-09-28T01:09:09;5.90;;;3.60;;
43678;SDS011;29279;50.858;4.392;2022-09-28T01:11:37;9.73;;;2.92;;
43678;SDS011;29279;50.858;4.392;2022-09-28T01:14:07;4.85;;;2.60;;
43678;SDS011;29279;50.858;4.392;2022-09-28T01:16:39;7.05;;;2.92;;
43678;SDS011;29279;50.858;4.392;2022-09-28T01:21:48;6.90;;;3.08;;
43678;SDS011;29279;50.858;4.392;2022-09-28T01:27:05;8.27;;;3.28;;
43678;SDS011;29279;50.858;4.392;2022-09-28T01:29:53;5.95;;;3.05;;
43678;SDS011;29279;50.858;4.392;2022-09-28T01:35:08;11.30;;;2.70;;
43678;SDS011;29279;50.858;4.392;2022-09-28T01:40:13;9.38;;;2.85;;
43678;SDS011;29279;50.858;4.392;2022-09-28T01:42:41;7.57;;;2.20;;
43678;SDS011;29279;50.858;4.392;2022-09-28T01:45:15;7.78;;;2.38;;
43678;SDS011;29279;50.858;4.392;2022-09-28T01:47:47;8.93;;;2.53;;
43678;SDS011;29279;50.858;4.392;2022-09-28T01:50:18;7.03;;;2.28;;
43678;SDS011;29279;50.858;4.392;2022-09-28T01:52:52;8.15;;;2.40;;
43678;SDS011;29279;50.858;4.392;2022-09-28T01:55:27;8.95;;;2.58;;
43678;SDS011;29279;50.858;4.392;2022-09-28T01:58:11;7.72;;;2.20;;
43678;SDS011;29279;50.858;4.392;2022-09-28T02:01:02;6.75;;;2.05;;
43678;SDS011;29279;50.858;4.392;2022-09-28T02:03:54;7.03;;;2.58;;
43678;SDS011;29279;50.858;4.392;2022-09-28T02:06:37;7.93;;;2.88;;
43678;SDS011;29279;50.858;4.392;2022-09-28T02:09:11;7.53;;;2.55;;
43678;SDS011;29279;50.858;4.392;2022-09-28T02:11:47;6.60;;;2.50;;
43678;SDS011;29279;50.858;4.392;2022-09-28T02:14:20;6.95;;;2.35;;
43678;SDS011;29279;50.858;4.392;2022-09-28T02:16:48;6.43;;;2.17;;
43678;SDS011;29279;50.858;4.392;2022-09-28T02:19:19;9.70;;;2.95;;
43678;SDS011;29279;50.858;4.392;2022-09-28T02:24:57;8.63;;;2.85;;
43678;SDS011;29279;50.858;4.392;2022-09-28T02:27:30;11.63;;;2.47;;
43678;SDS011;29279;50.858;4.392;2022-09-28T02:30:00;8.60;;;2.63;;
43678;SDS011;29279;50.858;4.392;2022-09-28T02:32:27;6.32;;;2.47;;
43678;SDS011;29279;50.858;4.392;2022-09-28T02:34:56;4.68;;;2.30;;
43678;SDS011;29279;50.858;4.392;2022-09-28T02:37:22;6.78;;;2.38;;
43678;SDS011;29279;50.858;4.392;2022-09-28T02:39:48;5.68;;;2.13;;
43678;SDS011;29279;50.858;4.392;2022-09-28T02:49:49;6.75;;;2.20;;
43678;SDS011;29279;50.858;4.392;2022-09-28T03:01:14;3.63;;;1.40;;
43678;SDS011;29279;50.858;4.392;2022-09-28T03:03:53;5.63;;;2.22;;
43678;SDS011;29279;50.858;4.392;2022-09-28T03:06:45;3.42;;;1.50;;
43678;SDS011;29279;50.858;4.392;2022-09-28T03:09:27;6.60;;;2.00;;
43678;SDS011;29279;50.858;4.392;2022-09-28T03:12:06;10.32;;;1.90;;
43678;SDS011;29279;50.858;4.392;2022-09-28T03:14:35;6.00;;;1.63;;
43678;SDS011;29279;50.858;4.392;2022-09-28T03:17:01;3.75;;;1.30;;
43678;SDS011;29279;50.858;4.392;2022-09-28T03:19:27;4.35;;;1.63;;
43678;SDS011;29279;50.858;4.392;2022-09-28T03:21:56;4.28;;;1.55;;
43678;SDS011;29279;50.858;4.392;2022-09-28T03:24:23;8.63;;;2.00;;
43678;SDS011;29279;50.858;4.392;2022-09-28T03:26:48;5.90;;;1.58;;
43678;SDS011;29279;50.858;4.392;2022-09-28T03:29:14;5.80;;;1.50;;
43678;SDS011;29279;50.858;4.392;2022-09-28T03:31:40;3.58;;;1.52;;
43678;SDS011;29279;50.858;4.392;2022-09-28T03:34:05;3.10;;;1.20;;
43678;SDS011;29279;50.858;4.392;2022-09-28T03:36:31;2.85;;;1.20;;
43678;SDS011;29279;50.858;4.392;2022-09-28T03:38:57;4.90;;;1.65;;
43678;SDS011;29279;50.858;4.392;2022-09-28T03:41:23;4.40;;;1.27;;
43678;SDS011;29279;50.858;4.392;2022-09-28T03:43:51;3.42;;;1.10;;
43678;SDS011;29279;50.858;4.392;2022-09-28T03:46:17;3.47;;;1.27;;
43678;SDS011;29279;50.858;4.392;2022-09-28T03:48:43;3.65;;;1.25;;
43678;SDS011;29279;50.858;4.392;2022-09-28T03:51:10;3.90;;;1.15;;
43678;SDS011;29279;50.858;4.392;2022-09-28T03:53:36;14.60;;;1.10;;
43678;SDS011;29279;50.858;4.392;2022-09-28T03:56:03;3.15;;;1.00;;
43678;SDS011;29279;50.858;4.392;2022-09-28T03:58:35;4.30;;;1.52;;
43678;SDS011;29279;50.858;4.392;2022-09-28T04:01:04;4.90;;;1.15;;
43678;SDS011;29279;50.858;4.392;2022-09-28T04:03:32;3.08;;;0.80;;
43678;SDS011;29279;50.858;4.392;2022-09-28T04:05:58;4.30;;;1.10;;
43678;SDS011;29279;50.858;4.392;2022-09-28T04:08:24;5.88;;;1.33;;
43678;SDS011;29279;50.858;4.392;2022-09-28T04:10:50;3.85;;;1.30;;
43678;SDS011;29279;50.858;4.392;2022-09-28T04:13:16;3.45;;;1.38;;
43678;SDS011;29279;50.858;4.392;2022-09-28T04:15:42;5.97;;;1.50;;
43678;SDS011;29279;50.858;4.392;2022-09-28T04:18:15;2.92;;;1.10;;
43678;SDS011;29279;50.858;4.392;2022-09-28T04:20:41;3.50;;;1.50;;
43678;SDS011;29279;50.858;4.392;2022-09-28T04:23:10;5.18;;;1.60;;
43678;SDS011;29279;50.858;4.392;2022-09-28T04:25:36;4.20;;;1.42;;
43678;SDS011;29279;50.858;4.392;2022-09-28T04:28:03;7.70;;;1.73;;
43678;SDS011;29279;50.858;4.392;2022-09-28T04:30:47;3.33;;;1.38;;
43678;SDS011;29279;50.858;4.392;2022-09-28T04:33:13;4.15;;;1.85;;
43678;SDS011;29279;50.858;4.392;2022-09-28T04:35:39;2.13;;;1.10;;
43678;SDS011;29279;50.858;4.392;2022-09-28T04:38:05;6.00;;;1.30;;
43678;SDS011;29279;50.858;4.392;2022-09-28T04:40:30;5.75;;;1.15;;
43678;SDS011;29279;50.858;4.392;2022-09-28T04:42:56;2.90;;;1.45;;
43678;SDS011;29279;50.858;4.392;2022-09-28T04:45:22;6.82;;;1.67;;
43678;SDS011;29279;50.858;4.392;2022-09-28T04:47:52;5.20;;;1.77;;
43678;SDS011;29279;50.858;4.392;2022-09-28T04:50:18;4.22;;;1.60;;
43678;SDS011;29279;50.858;4.392;2022-09-28T04:52:44;4.68;;;2.13;;
43678;SDS011;29279;50.858;4.392;2022-09-28T04:55:10;7.65;;;2.08;;
43678;SDS011;29279;50.858;4.392;2022-09-28T04:57:37;3.25;;;2.08;;
43678;SDS011;29279;50.858;4.392;2022-09-28T05:00:03;7.40;;;2.50;;
43678;SDS011;29279;50.858;4.392;2022-09-28T05:02:30;4.70;;;2.47;;
43678;SDS011;29279;50.858;4.392;2022-09-28T05:04:56;8.48;;;2.80;;
43678;SDS011;29279;50.858;4.392;2022-09-28T05:07:23;9.98;;;2.88;;
43678;SDS011;29279;50.858;4.392;2022-09-28T05:09:49;7.78;;;3.22;;
43678;SDS011;29279;50.858;4.392;2022-09-28T05:12:15;8.02;;;2.75;;
43678;SDS011;29279;50.858;4.392;2022-09-28T05:14:40;15.50;;;3.42;;
43678;SDS011;29279;50.858;4.392;2022-09-28T05:17:06;13.68;;;4.38;;
43678;SDS011;29279;50.858;4.392;2022-09-28T05:19:33;10.80;;;3.80;;
43678;SDS011;29279;50.858;4.392;2022-09-28T05:21:59;12.73;;;4.47;;
43678;SDS011;29279;50.858;4.392;2022-09-28T05:24:28;7.60;;;4.43;;
43678;SDS011;29279;50.858;4.392;2022-09-28T05:26:55;13.23;;;5.38;;
43678;SDS011;29279;50.858;4.392;2022-09-28T05:29:21;13.35;;;4.93;;
43678;SDS011;29279;50.858;4.392;2022-09-28T05:31:47;13.98;;;5.25;;
43678;SDS011;29279;50.858;4.392;2022-09-28T05:34:12;12.43;;;5.93;;
43678;SDS011;29279;50.858;4.392;2022-09-28T05:36:38;14.15;;;5.30;;
43678;SDS011;29279;50.858;4.392;2022-09-28T05:39:06;12.02;;;5.40;;
43678;SDS011;29279;50.858;4.392;2022-09-28T05:41:32;11.68;;;5.82;;
43678;SDS011;29279;50.858;4.392;2022-09-28T05:43:58;15.27;;;5.40;;
43678;SDS011;29279;50.858;4.392;2022-09-28T05:46:24;11.45;;;5.85;;
43678;SDS011;29279;50.858;4.392;2022-09-28T05:48:49;12.10;;;5.38;;
43678;SDS011;29279;50.858;4.392;2022-09-28T05:51:16;12.50;;;5.95;;
43678;SDS011;29279;50.858;4.392;2022-09-28T05:53:42;15.38;;;7.22;;
43678;SDS011;29279;50.858;4.392;2022-09-28T05:56:08;15.98;;;7.38;;
43678;SDS011;29279;50.858;4.392;2022-09-28T05:58:34;14.32;;;8.80;;
43678;SDS011;29279;50.858;4.392;2022-09-28T06:00:59;19.70;;;9.77;;
43678;SDS011;29279;50.858;4.392;2022-09-28T06:03:25;16.90;;;9.75;;
43678;SDS011;29279;50.858;4.392;2022-09-28T06:05:51;14.40;;;9.77;;
43678;SDS011;29279;50.858;4.392;2022-09-28T06:08:17;22.23;;;9.13;;
43678;SDS011;29279;50.858;4.392;2022-09-28T06:10:42;18.02;;;9.35;;
43678;SDS011;29279;50.858;4.392;2022-09-28T06:13:08;19.20;;;9.32;;
43678;SDS011;29279;50.858;4.392;2022-09-28T06:15:36;13.88;;;9.10;;
43678;SDS011;29279;50.858;4.392;2022-09-28T06:18:04;19.17;;;8.73;;
43678;SDS011;29279;50.858;4.392;2022-09-28T06:20:32;15.45;;;8.25;;
43678;SDS011;29279;50.858;4.392;2022-09-28T06:23:00;16.70;;;8.05;;
43678;SDS011;29279;50.858;4.392;2022-09-28T06:25:26;16.75;;;7.75;;
43678;SDS011;29279;50.858;4.392;2022-09-28T06:27:52;11.38;;;7.90;;
43678;SDS011;29279;50.858;4.392;2022-09-28T06:30:19;16.05;;;7.80;;
43678;SDS011;29279;50.858;4.392;2022-09-28T06:32:45;12.75;;;6.97;;
43678;SDS011;29279;50.858;4.392;2022-09-28T06:35:11;17.27;;;7.70;;
43678;SDS011;29279;50.858;4.392;2022-09-28T06:37:39;18.23;;;8.02;;
43678;SDS011;29279;50.858;4.392;2022-09-28T06:40:08;16.58;;;8.27;;
43678;SDS011;29279;50.858;4.392;2022-09-28T06:42:34;16.20;;;7.70;;
43678;SDS011;29279;50.858;4.392;2022-09-28T06:44:59;14.10;;;7.10;;
43678;SDS011;29279;50.858;4.392;2022-09-28T06:47:25;18.10;;;8.25;;
43678;SDS011;29279;50.858;4.392;2022-09-28T06:49:51;15.70;;;7.25;;
43678;SDS011;29279;50.858;4.392;2022-09-28T06:52:19;19.25;;;7.53;;
43678;SDS011;29279;50.858;4.392;2022-09-28T06:54:45;27.58;;;8.82;;
43678;SDS011;29279;50.858;4.392;2022-09-28T06:57:10;19.45;;;8.35;;
43678;SDS011;29279;50.858;4.392;2022-09-28T06:59:36;17.17;;;9.23;;
43678;SDS011;29279;50.858;4.392;2022-09-28T07:02:02;18.63;;;9.40;;
43678;SDS011;29279;50.858;4.392;2022-09-28T07:04:28;22.65;;;9.45;;
43678;SDS011;29279;50.858;4.392;2022-09-28T07:06:55;15.80;;;8.85;;
43678;SDS011;29279;50.858;4.392;2022-09-28T07:09:23;15.57;;;8.27;;
43678;SDS011;29279;50.858;4.392;2022-09-28T07:11:48;18.73;;;7.90;;
43678;SDS011;29279;50.858;4.392;2022-09-28T07:14:14;18.58;;;7.18;;
43678;SDS011;29279;50.858;4.392;2022-09-28T07:16:40;24.88;;;9.07;;
43678;SDS011;29279;50.858;4.392;2022-09-28T07:19:05;16.23;;;7.95;;
43678;SDS011;29279;50.858;4.392;2022-09-28T07:21:31;17.30;;;8.13;;
43678;SDS011;29279;50.858;4.392;2022-09-28T07:23:57;20.38;;;7.68;;
43678;SDS011;29279;50.858;4.392;2022-09-28T07:26:23;13.52;;;7.38;;
43678;SDS011;29279;50.858;4.392;2022-09-28T07:28:50;21.30;;;8.10;;
43678;SDS011;29279;50.858;4.392;2022-09-28T07:31:16;23.58;;;8.05;;
43678;SDS011;29279;50.858;4.392;2022-09-28T07:33:41;18.63;;;7.97;;
43678;SDS011;29279;50.858;4.392;2022-09-28T07:36:07;17.70;;;7.47;;
43678;SDS011;29279;50.858;4.392;2022-09-28T07:38:33;18.65;;;8.05;;
43678;SDS011;29279;50.858;4.392;2022-09-28T07:40:59;20.75;;;7.78;;
43678;SDS011;29279;50.858;4.392;2022-09-28T07:43:36;16.50;;;7.93;;
43678;SDS011;29279;50.858;4.392;2022-09-28T07:46:04;26.02;;;7.35;;
43678;SDS011;29279;50.858;4.392;2022-09-28T07:48:35;17.08;;;7.57;;
43678;SDS011;29279;50.858;4.392;2022-09-28T07:51:00;20.23;;;7.55;;
43678;SDS011;29279;50.858;4.392;2022-09-28T07:53:26;19.60;;;8.10;;
43678;SDS011;29279;50.858;4.392;2022-09-28T07:55:53;18.13;;;7.15;;
43678;SDS011;29279;50.858;4.392;2022-09-28T07:58:20;18.75;;;6.95;;
43678;SDS011;29279;50.858;4.392;2022-09-28T08:00:47;17.30;;;6.72;;
43678;SDS011;29279;50.858;4.392;2022-09-28T08:03:14;17.30;;;6.85;;
43678;SDS011;29279;50.858;4.392;2022-09-28T08:05:40;16.80;;;5.72;;
43678;SDS011;29279;50.858;4.392;2022-09-28T08:08:07;14.77;;;6.15;;
43678;SDS011;29279;50.858;4.392;2022-09-28T08:10:33;23.83;;;7.18;;
43678;SDS011;29279;50.858;4.392;2022-09-28T08:12:59;19.42;;;6.20;;
43678;SDS011;29279;50.858;4.392;2022-09-28T08:15:26;16.80;;;5.88;;
43678;SDS011;29279;50.858;4.392;2022-09-28T08:17:52;13.18;;;6.03;;
43678;SDS011;29279;50.858;4.392;2022-09-28T08:20:18;12.70;;;6.18;;
43678;SDS011;29279;50.858;4.392;2022-09-28T08:23:03;14.55;;;5.80;;
43678;SDS011;29279;50.858;4.392;2022-09-28T08:25:29;17.33;;;5.47;;
43678;SDS011;29279;50.858;4.392;2022-09-28T08:27:55;13.07;;;5.50;;
43678;SDS011;29279;50.858;4.392;2022-09-28T08:30:21;24.13;;;5.47;;
43678;SDS011;29279;50.858;4.392;2022-09-28T08:32:46;18.80;;;4.88;;
43678;SDS011;29279;50.858;4.392;2022-09-28T08:35:15;14.63;;;4.95;;
43678;SDS011;29279;50.858;4.392;2022-09-28T08:37:41;21.40;;;5.45;;
43678;SDS011;29279;50.858;4.392;2022-09-28T08:40:15;11.68;;;4.35;;
43678;SDS011;29279;50.858;4.392;2022-09-28T08:42:44;15.50;;;4.65;;
43678;SDS011;29279;50.858;4.392;2022-09-28T08:45:10;12.23;;;4.75;;
43678;SDS011;29279;50.858;4.392;2022-09-28T08:50:29;11.68;;;4.10;;
43678;SDS011;29279;50.858;4.392;2022-09-28T08:53:12;14.05;;;5.15;;
43678;SDS011;29279;50.858;4.392;2022-09-28T08:56:03;13.10;;;4.53;;
43678;SDS011;29279;50.858;4.392;2022-09-28T08:58:37;14.45;;;4.88;;
43678;SDS011;29279;50.858;4.392;2022-09-28T09:01:06;19.52;;;4.80;;
43678;SDS011;29279;50.858;4.392;2022-09-28T09:03:39;19.83;;;5.68;;
43678;SDS011;29279;50.858;4.392;2022-09-28T09:08:48;15.63;;;4.38;;
43678;SDS011;29279;50.858;4.392;2022-09-28T09:22:22;19.65;;;4.97;;
43678;SDS011;29279;50.858;4.392;2022-09-28T09:25:06;10.55;;;3.47;;
43678;SDS011;29279;50.858;4.392;2022-09-28T09:30:27;14.75;;;3.65;;
43678;SDS011;29279;50.858;4.392;2022-09-28T09:35:57;10.95;;;3.00;;
43678;SDS011;29279;50.858;4.392;2022-09-28T09:38:58;18.05;;;3.15;;
43678;SDS011;29279;50.858;4.392;2022-09-28T09:47:19;10.05;;;2.70;;
43678;SDS011;29279;50.858;4.392;2022-09-28T09:50:02;5.88;;;2.42;;
43678;SDS011;29279;50.858;4.392;2022-09-28T09:52:48;11.70;;;3.20;;
43678;SDS011;29279;50.858;4.392;2022-09-28T09:55:26;21.05;;;3.10;;
43678;SDS011;29279;50.858;4.392;2022-09-28T09:59:01;10.57;;;2.53;;
43678;SDS011;29279;50.858;4.392;2022-09-28T10:01:03;7.20;;;2.08;;
43678;SDS011;29279;50.858;4.392;2022-09-28T10:03:38;7.68;;;2.08;;
43678;SDS011;29279;50.858;4.392;2022-09-28T10:06:29;9.25;;;2.70;;
43678;SDS011;29279;50.858;4.392;2022-09-28T10:09:00;9.00;;;2.00;;
43678;SDS011;29279;50.858;4.392;2022-09-28T10:11:51;6.15;;;1.88;;
43678;SDS011;29279;50.858;4.392;2022-09-28T10:14:19;11.90;;;2.00;;
43678;SDS011;29279;50.858;4.392;2022-09-28T10:16:48;11.68;;;1.73;;
43678;SDS011;29279;50.858;4.392;2022-09-28T10:19:17;6.70;;;2.10;;
43678;SDS011;29279;50.858;4.392;2022-09-28T10:21:48;3.97;;;1.70;;
43678;SDS011;29279;50.858;4.392;2022-09-28T10:24:16;5.03;;;1.70;;
43678;SDS011;29279;50.858;4.392;2022-09-28T10:26:51;9.63;;;2.08;;
43678;SDS011;29279;50.858;4.392;2022-09-28T10:29:21;6.22;;;1.35;;
43678;SDS011;29279;50.858;4.392;2022-09-28T10:31:49;6.10;;;1.90;;
43678;SDS011;29279;50.858;4.392;2022-09-28T10:34:17;5.47;;;1.75;;
43678;SDS011;29279;50.858;4.392;2022-09-28T10:36:50;7.28;;;1.55;;
43678;SDS011;29279;50.858;4.392;2022-09-28T10:39:24;6.18;;;1.50;;
43678;SDS011;29279;50.858;4.392;2022-09-28T10:42:01;8.00;;;1.38;;
43678;SDS011;29279;50.858;4.392;2022-09-28T10:47:29;6.65;;;1.73;;
43678;SDS011;29279;50.858;4.392;2022-09-28T10:49:58;8.52;;;1.90;;
43678;SDS011;29279;50.858;4.392;2022-09-28T10:57:45;6.32;;;1.48;;
43678;SDS011;29279;50.858;4.392;2022-09-28T11:02:59;12.25;;;1.35;;
43678;SDS011;29279;50.858;4.392;2022-09-28T11:05:26;8.13;;;1.40;;
43678;SDS011;29279;50.858;4.392;2022-09-28T11:07:52;5.63;;;1.42;;
43678;SDS011;29279;50.858;4.392;2022-09-28T11:10:29;6.85;;;1.92;;
43678;SDS011;29279;50.858;4.392;2022-09-28T11:12:56;6.68;;;1.60;;
43678;SDS011;29279;50.858;4.392;2022-09-28T11:15:26;5.05;;;1.80;;
43678;SDS011;29279;50.858;4.392;2022-09-28T11:17:54;4.32;;;1.02;;
43678;SDS011;29279;50.858;4.392;2022-09-28T11:22:58;7.20;;;1.60;;
43678;SDS011;29279;50.858;4.392;2022-09-28T11:25:40;6.07;;;1.55;;
43678;SDS011;29279;50.858;4.392;2022-09-28T11:28:12;5.28;;;1.73;;
43678;SDS011;29279;50.858;4.392;2022-09-28T11:30:50;9.70;;;1.27;;
43678;SDS011;29279;50.858;4.392;2022-09-28T11:33:18;4.20;;;1.50;;
43678;SDS011;29279;50.858;4.392;2022-09-28T11:52:53;9.25;;;1.50;;
43678;SDS011;29279;50.858;4.392;2022-09-28T11:55:23;5.22;;;1.65;;
43678;SDS011;29279;50.858;4.392;2022-09-28T12:01:08;4.65;;;1.65;;
43678;SDS011;29279;50.858;4.392;2022-09-28T12:03:54;9.90;;;1.77;;
43678;SDS011;29279;50.858;4.392;2022-09-28T12:07:02;5.00;;;1.58;;
43678;SDS011;29279;50.858;4.392;2022-09-28T12:12:42;7.65;;;1.55;;
43678;SDS011;29279;50.858;4.392;2022-09-28T12:15:48;4.00;;;1.23;;
43678;SDS011;29279;50.858;4.392;2022-09-28T12:29:04;3.92;;;0.95;;
43678;SDS011;29279;50.858;4.392;2022-09-28T12:31:56;3.97;;;0.95;;
43678;SDS011;29279;50.858;4.392;2022-09-28T12:34:47;5.43;;;1.08;;
43678;SDS011;29279;50.858;4.392;2022-09-28T12:54:19;3.83;;;1.40;;
43678;SDS011;29279;50.858;4.392;2022-09-28T12:59:36;7.13;;;1.10;;
43678;SDS011;29279;50.858;4.392;2022-09-28T13:08:07;6.43;;;1.05;;
43678;SDS011;29279;50.858;4.392;2022-09-28T13:10:48;10.85;;;1.20;;
43678;SDS011;29279;50.858;4.392;2022-09-28T13:21:24;5.93;;;1.10;;
43678;SDS011;29279;50.858;4.392;2022-09-28T13:23:58;6.28;;;1.33;;
43678;SDS011;29279;50.858;4.392;2022-09-28T13:26:46;6.07;;;1.35;;
43678;SDS011;29279;50.858;4.392;2022-09-28T13:29:13;7.53;;;1.20;;
43678;SDS011;29279;50.858;4.392;2022-09-28T13:31:44;3.25;;;1.17;;
43678;SDS011;29279;50.858;4.392;2022-09-28T13:34:15;8.15;;;1.20;;
43678;SDS011;29279;50.858;4.392;2022-09-28T13:36:44;9.23;;;1.52;;
43678;SDS011;29279;50.858;4.392;2022-09-28T13:39:35;6.35;;;1.42;;
43678;SDS011;29279;50.858;4.392;2022-09-28T13:42:11;6.32;;;1.58;;
43678;SDS011;29279;50.858;4.392;2022-09-28T13:48:31;3.35;;;1.23;;
43678;SDS011;29279;50.858;4.392;2022-09-28T13:50:56;3.80;;;1.10;;
43678;SDS011;29279;50.858;4.392;2022-09-28T13:59:25;6.88;;;1.27;;
43678;SDS011;29279;50.858;4.392;2022-09-28T14:04:23;7.53;;;1.50;;
43678;SDS011;29279;50.858;4.392;2022-09-28T14:07:14;7.65;;;1.98;;
43678;SDS011;29279;50.858;4.392;2022-09-28T14:09:45;13.25;;;2.70;;
43678;SDS011;29279;50.858;4.392;2022-09-28T14:15:00;10.73;;;1.52;;
43678;SDS011;29279;50.858;4.392;2022-09-28T14:17:44;6.25;;;1.75;;
43678;SDS011;29279;50.858;4.392;2022-09-28T14:20:17;5.70;;;1.30;;
43678;SDS011;29279;50.858;4.392;2022-09-28T14:25:15;5.80;;;1.13;;
43678;SDS011;29279;50.858;4.392;2022-09-28T14:35:54;3.10;;;1.08;;
43678;SDS011;29279;50.858;4.392;2022-09-28T14:38:36;11.98;;;1.38;;
43678;SDS011;29279;50.858;4.392;2022-09-28T14:41:29;5.45;;;1.30;;
43678;SDS011;29279;50.858;4.392;2022-09-28T14:49:43;4.93;;;1.10;;
43678;SDS011;29279;50.858;4.392;2022-09-28T14:52:11;5.15;;;1.40;;
43678;SDS011;29279;50.858;4.392;2022-09-28T14:54:44;6.45;;;1.52;;
43678;SDS011;29279;50.858;4.392;2022-09-28T14:57:19;4.35;;;1.30;;
43678;SDS011;29279;50.858;4.392;2022-09-28T14:59:48;8.80;;;1.67;;
43678;SDS011;29279;50.858;4.392;2022-09-28T15:02:16;8.25;;;1.42;;
43678;SDS011;29279;50.858;4.392;2022-09-28T15:04:51;7.10;;;1.20;;
43678;SDS011;29279;50.858;4.392;2022-09-28T15:10:34;7.63;;;1.92;;
43678;SDS011;29279;50.858;4.392;2022-09-28T15:13:05;7.38;;;1.77;;
43678;SDS011;29279;50.858;4.392;2022-09-28T15:15:45;5.43;;;1.50;;
43678;SDS011;29279;50.858;4.392;2022-09-28T15:20:46;6.25;;;1.20;;
43678;SDS011;29279;50.858;4.392;2022-09-28T15:25:54;2.50;;;0.80;;
43678;SDS011;29279;50.858;4.392;2022-09-28T15:28:21;6.90;;;1.33;;
43678;SDS011;29279;50.858;4.392;2022-09-28T15:30:48;4.95;;;1.13;;
43678;SDS011;29279;50.858;4.392;2022-09-28T15:33:24;2.58;;;0.95;;
43678;SDS011;29279;50.858;4.392;2022-09-28T15:36:22;5.00;;;0.98;;
43678;SDS011;29279;50.858;4.392;2022-09-28T15:41:28;5.70;;;1.45;;
43678;SDS011;29279;50.858;4.392;2022-09-28T15:46:36;3.85;;;1.10;;
43678;SDS011;29279;50.858;4.392;2022-09-28T15:49:04;5.95;;;0.80;;
43678;SDS011;29279;50.858;4.392;2022-09-28T15:51:33;4.07;;;1.30;;
43678;SDS011;29279;50.858;4.392;2022-09-28T15:54:13;8.05;;;1.25;;
43678;SDS011;29279;50.858;4.392;2022-09-28T15:57:00;4.05;;;1.00;;
43678;SDS011;29279;50.858;4.392;2022-09-28T15:59:36;4.60;;;1.55;;
43678;SDS011;29279;50.858;4.392;2022-09-28T16:02:16;6.32;;;1.70;;
43678;SDS011;29279;50.858;4.392;2022-09-28T16:04:53;4.72;;;1.52;;
43678;SDS011;29279;50.858;4.392;2022-09-28T16:15:22;3.67;;;1.08;;
43678;SDS011;29279;50.858;4.392;2022-09-28T16:17:54;2.13;;;1.08;;
43678;SDS011;29279;50.858;4.392;2022-09-28T16:20:31;4.40;;;1.30;;
43678;SDS011;29279;50.858;4.392;2022-09-28T16:25:48;3.50;;;1.60;;
43678;SDS011;29279;50.858;4.392;2022-09-28T16:36:10;6.25;;;2.13;;
43678;SDS011;29279;50.858;4.392;2022-09-28T16:38:38;3.30;;;2.03;;
43678;SDS011;29279;50.858;4.392;2022-09-28T16:41:04;6.10;;;1.58;;
43678;SDS011;29279;50.858;4.392;2022-09-28T16:43:30;3.03;;;1.20;;
43678;SDS011;29279;50.858;4.392;2022-09-28T16:45:59;4.22;;;1.65;;
43678;SDS011;29279;50.858;4.392;2022-09-28T16:48:33;5.30;;;1.30;;
43678;SDS011;29279;50.858;4.392;2022-09-28T16:51:03;5.38;;;1.65;;
43678;SDS011;29279;50.858;4.392;2022-09-28T16:53:29;4.60;;;1.88;;
43678;SDS011;29279;50.858;4.392;2022-09-28T16:56:13;3.97;;;1.08;;
43678;SDS011;29279;50.858;4.392;2022-09-28T16:58:39;10.23;;;1.42;;
43678;SDS011;29279;50.858;4.392;2022-09-28T17:01:08;6.22;;;1.52;;
43678;SDS011;29279;50.858;4.392;2022-09-28T17:03:35;4.55;;;1.45;;
43678;SDS011;29279;50.858;4.392;2022-09-28T17:06:02;3.58;;;1.60;;
43678;SDS011;29279;50.858;4.392;2022-09-28T17:08:30;4.20;;;1.92;;
43678;SDS011;29279;50.858;4.392;2022-09-28T17:10:58;6.80;;;2.30;;
43678;SDS011;29279;50.858;4.392;2022-09-28T17:13:29;7.50;;;1.52;;
43678;SDS011;29279;50.858;4.392;2022-09-28T17:18:27;6.13;;;1.80;;
43678;SDS011;29279;50.858;4.392;2022-09-28T17:20:55;7.47;;;2.28;;
43678;SDS011;29279;50.858;4.392;2022-09-28T17:23:23;11.68;;;2.50;;
43678;SDS011;29279;50.858;4.392;2022-09-28T17:25:48;6.68;;;2.22;;
43678;SDS011;29279;50.858;4.392;2022-09-28T17:28:18;6.95;;;2.00;;
43678;SDS011;29279;50.858;4.392;2022-09-28T17:30:47;9.85;;;2.72;;
43678;SDS011;29279;50.858;4.392;2022-09-28T17:33:14;6.03;;;2.22;;
43678;SDS011;29279;50.858;4.392;2022-09-28T17:35:40;7.95;;;2.30;;
43678;SDS011;29279;50.858;4.392;2022-09-28T17:38:08;4.95;;;1.83;;
43678;SDS011;29279;50.858;4.392;2022-09-28T17:40:42;5.68;;;2.03;;
43678;SDS011;29279;50.858;4.392;2022-09-28T17:43:09;12.75;;;2.05;;
43678;SDS011;29279;50.858;4.392;2022-09-28T17:45:36;6.85;;;2.20;;
43678;SDS011;29279;50.858;4.392;2022-09-28T17:48:12;8.13;;;1.90;;
43678;SDS011;29279;50.858;4.392;2022-09-28T17:50:40;7.80;;;2.08;;
43678;SDS011;29279;50.858;4.392;2022-09-28T17:53:07;5.45;;;1.83;;
43678;SDS011;29279;50.858;4.392;2022-09-28T17:55:33;7.85;;;1.40;;
43678;SDS011;29279;50.858;4.392;2022-09-28T17:58:01;4.40;;;1.48;;
43678;SDS011;29279;50.858;4.392;2022-09-28T18:00:49;5.55;;;1.60;;
43678;SDS011;29279;50.858;4.392;2022-09-28T18:03:17;6.50;;;1.90;;
43678;SDS011;29279;50.858;4.392;2022-09-28T18:05:44;4.93;;;1.42;;
43678;SDS011;29279;50.858;4.392;2022-09-28T18:08:17;6.43;;;2.00;;
43678;SDS011;29279;50.858;4.392;2022-09-28T18:10:44;4.47;;;1.85;;
43678;SDS011;29279;50.858;4.392;2022-09-28T18:13:11;8.85;;;2.30;;
43678;SDS011;29279;50.858;4.392;2022-09-28T18:15:37;5.47;;;1.77;;
43678;SDS011;29279;50.858;4.392;2022-09-28T18:18:03;4.75;;;1.92;;
43678;SDS011;29279;50.858;4.392;2022-09-28T18:20:28;4.95;;;2.20;;
43678;SDS011;29279;50.858;4.392;2022-09-28T18:22:54;3.83;;;1.33;;
43678;SDS011;29279;50.858;4.392;2022-09-28T18:25:21;4.43;;;1.65;;
43678;SDS011;29279;50.858;4.392;2022-09-28T18:27:46;6.18;;;1.88;;
43678;SDS011;29279;50.858;4.392;2022-09-28T18:30:12;7.75;;;2.95;;
43678;SDS011;29279;50.858;4.392;2022-09-28T18:32:38;11.07;;;3.22;;
43678;SDS011;29279;50.858;4.392;2022-09-28T18:35:04;7.97;;;3.45;;